Time;durP1;ratioP1;P1;durP2;ratioP2;P2;SDS_P1;SDS_P2;PMS_P1;PMS_P2;Temp;Humidity;BMP_temperature;BMP_pressure;BME280_temperature;BME280_humidity;BME280_pressure;Samples;Min_cycle;Max_cycle;Signal;HPM_P1;HPM_P2
2022/06/10 00:01:14;;;;;;;20.85;7.63;;;;;;;;;;4926474;29;20590;-72
2022/06/10 00:03:41;;;;;;;12.88;8.23;;;;;;;;;;4931812;28;20055;-73
2022/06/10 00:06:09;;;;;;;13.23;7.82;;;;;;;;;;4920142;29;20126;-72
2022/06/10 00:08:39;;;;;;;11.55;7.20;;;;;;;;;;4930398;29;20048;-72
2022/06/10 00:11:07;;;;;;;15.23;8.25;;;;;;;;;;4930609;29;20228;-72
2022/06/10 00:13:35;;;;;;;12.70;7.68;;;;;;;;;;4930653;29;20063;-73
2022/06/10 00:16:03;;;;;;;13.63;7.82;;;;;;;;;;4935181;29;20162;-73
2022/06/10 00:18:31;;;;;;;14.02;7.53;;;;;;;;;;4949472;29;20089;-73
2022/06/10 00:20:59;;;;;;;12.75;7.45;;;;;;;;;;4923687;29;20048;-73
2022/06/10 00:23:26;;;;;;;13.32;6.95;;;;;;;;;;4938112;29;20130;-73
2022/06/10 00:25:54;;;;;;;14.48;7.85;;;;;;;;;;4933716;29;20139;-73
2022/06/10 00:28:21;;;;;;;15.07;7.68;;;;;;;;;;4942874;29;20131;-73
2022/06/10 00:30:49;;;;;;;13.80;7.55;;;;;;;;;;4936336;29;20058;-73
2022/06/10 00:33:17;;;;;;;12.95;7.97;;;;;;;;;;4948886;29;20055;-73
2022/06/10 00:35:45;;;;;;;15.52;7.18;;;;;;;;;;4943839;29;20098;-72
2022/06/10 00:38:12;;;;;;;15.38;7.18;;;;;;;;;;4923062;29;20107;-72
2022/06/10 00:40:51;;;;;;;11.98;7.40;;;;;;;;;;4925797;29;20051;-72
2022/06/10 00:43:26;;;;;;;15.18;7.28;;;;;;;;;;4930073;29;20052;-74
2022/06/10 00:46:02;;;;;;;14.00;7.40;;;;;;;;;;4933954;29;20051;-74
2022/06/10 00:49:05;;;;;;;15.65;7.95;;;;;;;;;;4933989;29;20051;-74
2022/06/10 00:51:46;;;;;;;16.98;7.75;;;;;;;;;;4838843;29;20053;-74
2022/06/10 00:54:21;;;;;;;18.15;8.35;;;;;;;;;;4922208;29;20138;-73
2022/06/10 00:56:54;;;;;;;16.40;8.63;;;;;;;;;;4923207;29;20527;-73
2022/06/10 00:59:25;;;;;;;15.27;8.07;;;;;;;;;;4947571;29;20089;-74
2022/06/10 01:01:55;;;;;;;16.58;8.15;;;;;;;;;;4931640;29;20170;-74
2022/06/10 01:04:24;;;;;;;15.65;8.52;;;;;;;;;;4929464;29;20131;-74
2022/06/10 01:06:51;;;;;;;13.05;8.00;;;;;;;;;;4930433;29;20091;-74
2022/06/10 01:09:19;;;;;;;14.68;8.25;;;;;;;;;;4915981;29;20123;-74
2022/06/10 01:12:04;;;;;;;14.48;7.97;;;;;;;;;;4927636;29;20863;-74
2022/06/10 01:14:50;;;;;;;16.63;8.48;;;;;;;;;;4928993;29;20090;-74
2022/06/10 01:17:36;;;;;;;15.82;8.68;;;;;;;;;;4934435;29;20159;-74
2022/06/10 01:20:03;;;;;;;;;;;;;;;;;;4942731;29;20083;-73
2022/06/10 01:22:51;;;;;;;21.52;9.07;;;;;;;;;;4928455;29;20024;-73
2022/06/10 01:25:31;;;;;;;14.45;8.25;;;;;;;;;;4928234;29;20079;-73
2022/06/10 01:28:09;;;;;;;14.00;8.32;;;;;;;;;;4933201;29;20119;-73
2022/06/10 01:30:43;;;;;;;22.27;8.75;;;;;;;;;;4927596;29;20050;-74
2022/06/10 01:33:15;;;;;;;20.50;9.50;;;;;;;;;;4936404;29;20138;-74
2022/06/10 01:35:55;;;;;;;15.93;9.02;;;;;;;;;;4935805;29;20667;-74
2022/06/10 01:38:37;;;;;;;20.48;9.32;;;;;;;;;;4928823;29;20163;-74
2022/06/10 01:41:11;;;;;;;17.95;9.13;;;;;;;;;;4918757;29;20058;-74
2022/06/10 01:43:47;;;;;;;19.95;8.95;;;;;;;;;;4928845;29;20146;-74
2022/06/10 01:46:16;;;;;;;18.60;9.15;;;;;;;;;;4911310;29;20059;-73
2022/06/10 01:48:46;;;;;;;18.60;8.68;;;;;;;;;;4918487;29;20484;-74
2022/06/10 01:51:17;;;;;;;16.00;9.27;;;;;;;;;;4916556;29;20138;-74
2022/06/10 01:53:54;;;;;;;15.15;8.98;;;;;;;;;;4927638;29;20047;-75
2022/06/10 01:56:25;;;;;;;17.92;8.60;;;;;;;;;;4933423;29;20134;-74
2022/06/10 01:59:01;;;;;;;19.20;8.93;;;;;;;;;;4931210;29;20060;-74
2022/06/10 02:01:32;;;;;;;16.80;8.50;;;;;;;;;;4927610;29;20071;-74
2022/06/10 02:04:03;;;;;;;15.18;8.10;;;;;;;;;;4933952;28;20466;-74
2022/06/10 02:06:33;;;;;;;17.60;8.48;;;;;;;;;;4944601;29;20098;-74
2022/06/10 02:09:03;;;;;;;15.40;7.88;;;;;;;;;;4942492;29;20835;-74
2022/06/10 02:11:32;;;;;;;21.25;7.80;;;;;;;;;;4942812;29;20055;-74
2022/06/10 02:14:09;;;;;;;18.30;8.10;;;;;;;;;;4938162;29;20158;-74
2022/06/10 02:16:47;;;;;;;15.77;8.10;;;;;;;;;;4928084;29;20062;-74
2022/06/10 02:19:21;;;;;;;18.35;8.25;;;;;;;;;;4929775;29;20055;-74
2022/06/10 02:22:08;;;;;;;20.13;7.80;;;;;;;;;;4929420;29;20060;-74
2022/06/10 02:24:38;;;;;;;13.82;7.65;;;;;;;;;;4914026;29;20057;-74
2022/06/10 02:27:12;;;;;;;13.57;7.45;;;;;;;;;;4928411;29;20413;-74
2022/06/10 02:29:41;;;;;;;16.45;7.57;;;;;;;;;;4915278;29;20099;-74
2022/06/10 02:32:09;;;;;;;18.08;6.88;;;;;;;;;;4928654;29;20043;-73
2022/06/10 02:34:36;;;;;;;18.10;6.88;;;;;;;;;;4931422;28;20065;-74
2022/06/10 02:37:13;;;;;;;12.13;7.35;;;;;;;;;;4936875;29;20138;-74
2022/06/10 02:39:59;;;;;;;16.92;7.00;;;;;;;;;;4935394;29;20482;-74
2022/06/10 02:42:43;;;;;;;15.10;7.53;;;;;;;;;;4939297;29;20056;-74
2022/06/10 02:45:16;;;;;;;15.50;6.63;;;;;;;;;;4936579;29;20194;-73
2022/06/10 02:47:43;;;;;;;19.58;6.70;;;;;;;;;;4929475;29;20162;-74
2022/06/10 02:50:11;;;;;;;11.82;6.88;;;;;;;;;;4943030;29;20142;-74
2022/06/10 02:52:39;;;;;;;12.23;6.43;;;;;;;;;;4934381;29;20047;-74
2022/06/10 02:55:08;;;;;;;10.25;6.25;;;;;;;;;;4938167;29;20144;-74
2022/06/10 03:03:26;;;;;;;26.30;6.13;;;;;;;;;;4932603;29;20074;-74
2022/06/10 03:06:00;;;;;;;14.75;6.40;;;;;;;;;;4920074;29;20146;-74
2022/06/10 03:08:34;;;;;;;12.77;6.20;;;;;;;;;;4927881;29;20749;-74
2022/06/10 03:11:01;;;;;;;12.85;5.10;;;;;;;;;;4920673;29;20051;-73
2022/06/10 03:13:32;;;;;;;8.55;4.72;;;;;;;;;;4932213;29;20055;-74
2022/06/10 03:16:08;;;;;;;12.25;5.43;;;;;;;;;;4938384;29;20079;-74
2022/06/10 03:18:48;;;;;;;10.20;4.80;;;;;;;;;;4944217;29;20051;-73
2022/06/10 03:21:38;;;;;;;7.68;4.63;;;;;;;;;;4927486;29;20146;-74
2022/06/10 03:24:14;;;;;;;8.05;4.70;;;;;;;;;;4927043;29;20170;-74
2022/06/10 03:26:42;;;;;;;;;;;;;;;;;;4935252;29;20082;-74
2022/06/10 03:29:16;;;;;;;11.30;4.10;;;;;;;;;;4938000;29;19970;-74
2022/06/10 03:31:45;;;;;;;10.18;4.60;;;;;;;;;;4927710;29;20424;-74
2022/06/10 03:34:33;;;;;;;13.43;5.25;;;;;;;;;;4933061;29;20051;-74
2022/06/10 03:37:01;;;;;;;12.43;5.32;;;;;;;;;;4931591;29;20155;-73
2022/06/10 03:39:29;;;;;;;13.00;5.05;;;;;;;;;;4949831;29;20169;-74
2022/06/10 03:42:01;;;;;;;14.20;4.50;;;;;;;;;;4938766;29;20147;-73
2022/06/10 03:44:28;;;;;;;11.00;4.80;;;;;;;;;;4926800;29;20056;-74
2022/06/10 03:46:57;;;;;;;12.52;5.00;;;;;;;;;;4918495;29;20146;-74
2022/06/10 03:49:28;;;;;;;10.48;5.25;;;;;;;;;;4933413;29;20091;-74
2022/06/10 03:51:55;;;;;;;9.82;4.25;;;;;;;;;;4931290;29;20134;-74
2022/06/10 03:54:23;;;;;;;8.88;5.15;;;;;;;;;;4931621;29;20134;-74
2022/06/10 03:56:53;;;;;;;12.20;6.28;;;;;;;;;;4931438;29;20054;-74
2022/06/10 03:59:20;;;;;;;12.90;4.75;;;;;;;;;;4930852;29;20083;-74
2022/06/10 04:01:47;;;;;;;12.85;5.97;;;;;;;;;;4931954;29;20134;-74
2022/06/10 04:04:15;;;;;;;8.30;5.13;;;;;;;;;;4933059;29;20158;-73
2022/06/10 04:06:42;;;;;;;14.27;5.88;;;;;;;;;;4933299;29;20055;-74
2022/06/10 04:09:26;;;;;;;12.00;5.13;;;;;;;;;;4937724;29;20055;-74
2022/06/10 04:11:53;;;;;;;10.75;5.03;;;;;;;;;;4931475;29;20076;-74
2022/06/10 04:14:21;;;;;;;13.75;4.72;;;;;;;;;;4942854;28;20099;-74
2022/06/10 04:16:48;;;;;;;6.28;4.28;;;;;;;;;;4946944;29;20591;-74
2022/06/10 04:19:16;;;;;;;9.10;4.15;;;;;;;;;;4948488;29;20062;-73
2022/06/10 04:21:44;;;;;;;7.97;4.10;;;;;;;;;;4946623;29;20499;-74
2022/06/10 04:24:11;;;;;;;13.25;4.68;;;;;;;;;;4933595;29;20051;-73
2022/06/10 04:26:38;;;;;;;6.93;4.22;;;;;;;;;;4945087;29;20467;-74
2022/06/10 04:29:06;;;;;;;7.18;4.13;;;;;;;;;;4946419;29;20075;-74
2022/06/10 04:31:33;;;;;;;8.00;4.00;;;;;;;;;;4943918;29;20054;-74
2022/06/10 04:34:01;;;;;;;11.07;4.75;;;;;;;;;;4947891;29;20665;-74
2022/06/10 04:36:29;;;;;;;8.88;3.95;;;;;;;;;;4934077;29;20055;-74
2022/06/10 04:38:59;;;;;;;16.08;4.47;;;;;;;;;;4947054;29;20211;-74
2022/06/10 04:41:27;;;;;;;8.55;4.00;;;;;;;;;;4941768;29;20588;-73
2022/06/10 04:43:54;;;;;;;19.45;5.32;;;;;;;;;;4946634;29;20489;-74
2022/06/10 04:46:35;;;;;;;8.10;4.00;;;;;;;;;;4943077;29;20074;-73
2022/06/10 04:49:03;;;;;;;13.95;4.32;;;;;;;;;;4929302;28;20095;-73
2022/06/10 04:51:31;;;;;;;12.60;4.72;;;;;;;;;;4915214;29;20078;-73
2022/06/10 04:53:58;;;;;;;10.15;4.20;;;;;;;;;;4936438;29;20114;-73
2022/06/10 04:56:26;;;;;;;10.35;4.72;;;;;;;;;;4928803;29;20087;-73
2022/06/10 04:58:53;;;;;;;8.10;4.30;;;;;;;;;;4932677;29;20126;-74
2022/06/10 05:01:20;;;;;;;14.43;5.22;;;;;;;;;;4930961;29;20086;-74
2022/06/10 05:03:51;;;;;;;7.32;3.90;;;;;;;;;;4929394;29;21119;-74
2022/06/10 05:06:19;;;;;;;9.82;4.32;;;;;;;;;;4944812;29;20130;-74
2022/06/10 05:08:46;;;;;;;16.45;5.38;;;;;;;;;;4948259;29;20552;-75
2022/06/10 05:11:14;;;;;;;14.57;4.85;;;;;;;;;;4933635;29;20107;-74
2022/06/10 05:13:41;;;;;;;9.45;4.68;;;;;;;;;;4941493;29;20740;-76
2022/06/10 05:16:08;;;;;;;8.75;5.18;;;;;;;;;;4946577;29;20118;-73
2022/06/10 05:18:36;;;;;;;9.38;4.53;;;;;;;;;;4924881;29;20047;-74
2022/06/10 05:21:03;;;;;;;13.95;4.72;;;;;;;;;;4945005;29;20117;-75
2022/06/10 05:23:30;;;;;;;8.63;4.80;;;;;;;;;;4931183;29;20051;-75
2022/06/10 05:25:58;;;;;;;11.75;5.13;;;;;;;;;;4930892;29;20146;-74
2022/06/10 05:28:26;;;;;;;14.75;5.13;;;;;;;;;;4929784;29;20166;-74
2022/06/10 05:30:53;;;;;;;13.00;5.22;;;;;;;;;;4945367;29;20134;-77
2022/06/10 05:33:21;;;;;;;9.57;4.38;;;;;;;;;;4947878;29;20514;-76
2022/06/10 05:35:48;;;;;;;11.02;4.93;;;;;;;;;;4932448;29;20122;-76
2022/06/10 05:38:16;;;;;;;9.68;4.72;;;;;;;;;;4929953;29;20761;-74
2022/06/10 05:40:43;;;;;;;8.90;4.80;;;;;;;;;;4930731;29;20059;-75
2022/06/10 05:43:11;;;;;;;8.23;5.22;;;;;;;;;;4930282;29;20149;-73
2022/06/10 05:45:41;;;;;;;15.35;5.15;;;;;;;;;;4926547;29;20421;-73
2022/06/10 05:48:09;;;;;;;10.48;4.30;;;;;;;;;;4927500;29;20059;-73
2022/06/10 05:50:38;;;;;;;10.77;5.32;;;;;;;;;;4915136;29;20189;-73
2022/06/10 05:53:07;;;;;;;10.23;4.90;;;;;;;;;;4928655;29;20138;-74
2022/06/10 05:55:36;;;;;;;9.48;5.43;;;;;;;;;;4931827;29;20793;-74
2022/06/10 05:58:07;;;;;;;9.80;4.30;;;;;;;;;;4930480;29;20063;-73
2022/06/10 06:00:34;;;;;;;12.73;5.00;;;;;;;;;;4938000;28;20674;-74
2022/06/10 06:03:02;;;;;;;12.15;4.93;;;;;;;;;;4935974;29;20055;-73
2022/06/10 06:05:29;;;;;;;16.00;4.95;;;;;;;;;;4930692;29;21052;-74
2022/06/10 06:07:57;;;;;;;9.18;4.38;;;;;;;;;;4936871;28;20059;-74
2022/06/10 06:10:26;;;;;;;10.65;4.00;;;;;;;;;;4912976;29;20158;-74
2022/06/10 06:12:53;;;;;;;11.90;4.30;;;;;;;;;;4930453;29;20052;-73
2022/06/10 06:15:21;;;;;;;10.38;4.05;;;;;;;;;;4929898;29;20071;-74
2022/06/10 06:17:50;;;;;;;9.68;3.88;;;;;;;;;;4940040;29;20139;-74
2022/06/10 06:20:17;;;;;;;8.02;3.28;;;;;;;;;;4929950;29;20051;-73
2022/06/10 06:22:46;;;;;;;10.45;3.47;;;;;;;;;;4930683;29;20138;-73
2022/06/10 06:25:15;;;;;;;9.30;3.17;;;;;;;;;;4948320;29;20081;-74
2022/06/10 06:27:43;;;;;;;4.57;3.10;;;;;;;;;;4947755;29;20059;-74
2022/06/10 06:30:15;;;;;;;5.20;3.00;;;;;;;;;;4945657;29;20507;-74
2022/06/10 06:32:43;;;;;;;8.65;3.00;;;;;;;;;;4947934;29;20126;-74
2022/06/10 06:35:10;;;;;;;7.03;3.00;;;;;;;;;;4932345;29;20135;-74
2022/06/10 06:37:39;;;;;;;8.20;2.80;;;;;;;;;;4912937;29;20083;-74
2022/06/10 06:40:06;;;;;;;8.52;2.70;;;;;;;;;;4929606;29;20051;-74
2022/06/10 06:42:35;;;;;;;10.40;2.72;;;;;;;;;;4918491;29;20553;-74
2022/06/10 06:45:04;;;;;;;10.13;3.20;;;;;;;;;;4912519;29;20127;-74
2022/06/10 06:47:48;;;;;;;11.02;2.83;;;;;;;;;;4929480;29;20047;-74
2022/06/10 06:50:16;;;;;;;9.85;3.13;;;;;;;;;;4932775;29;20111;-74
2022/06/10 06:52:44;;;;;;;13.25;3.10;;;;;;;;;;4915825;29;20051;-74
2022/06/10 06:55:11;;;;;;;6.20;2.35;;;;;;;;;;4942003;29;20446;-74
2022/06/10 06:57:38;;;;;;;7.20;2.60;;;;;;;;;;4930944;29;20043;-75
2022/06/10 07:00:06;;;;;;;9.35;2.00;;;;;;;;;;4943792;29;20091;-74
2022/06/10 07:02:35;;;;;;;8.63;2.10;;;;;;;;;;4945851;29;20440;-74
2022/06/10 07:05:05;;;;;;;10.38;1.80;;;;;;;;;;4930790;29;20126;-74
2022/06/10 07:07:32;;;;;;;8.07;2.13;;;;;;;;;;4936074;29;20083;-75
2022/06/10 07:10:00;;;;;;;10.52;2.05;;;;;;;;;;4937960;29;20089;-74
2022/06/10 07:12:27;;;;;;;8.98;2.10;;;;;;;;;;4947843;29;20134;-74
2022/06/10 07:14:54;;;;;;;8.30;2.58;;;;;;;;;;4948128;29;20500;-74
2022/06/10 07:17:22;;;;;;;13.50;2.47;;;;;;;;;;4924065;29;20531;-74
2022/06/10 07:19:51;;;;;;;10.00;2.20;;;;;;;;;;4943390;29;20043;-75
2022/06/10 07:22:18;;;;;;;6.97;2.65;;;;;;;;;;4930257;29;20078;-76
2022/06/10 07:24:46;;;;;;;12.68;3.17;;;;;;;;;;4929882;29;20077;-74
2022/06/10 07:27:13;;;;;;;6.22;2.05;;;;;;;;;;4948165;29;20055;-74
2022/06/10 07:29:41;;;;;;;12.23;2.50;;;;;;;;;;4943227;29;20051;-74
2022/06/10 07:32:08;;;;;;;11.82;3.38;;;;;;;;;;4948026;29;20082;-75
2022/06/10 07:34:36;;;;;;;11.32;3.00;;;;;;;;;;4947077;29;20126;-75
2022/06/10 07:37:04;;;;;;;13.25;2.53;;;;;;;;;;4928363;29;20168;-74
2022/06/10 07:39:35;;;;;;;7.95;2.25;;;;;;;;;;4946008;29;20552;-74
2022/06/10 07:42:02;;;;;;;10.48;2.20;;;;;;;;;;4946695;29;20052;-75
2022/06/10 07:44:31;;;;;;;10.52;2.40;;;;;;;;;;4931031;29;20138;-75
2022/06/10 07:47:00;;;;;;;9.13;2.40;;;;;;;;;;4946274;29;20082;-75
2022/06/10 07:49:29;;;;;;;9.23;2.05;;;;;;;;;;4946850;29;20059;-75
2022/06/10 07:51:57;;;;;;;7.85;2.10;;;;;;;;;;4945341;29;20055;-75
2022/06/10 07:54:24;;;;;;;14.55;2.40;;;;;;;;;;4938784;29;20508;-75
2022/06/10 07:56:52;;;;;;;9.77;1.83;;;;;;;;;;4946529;29;20098;-76
2022/06/10 07:59:19;;;;;;;9.35;1.98;;;;;;;;;;4945940;29;20047;-75
2022/06/10 08:01:46;;;;;;;9.48;2.45;;;;;;;;;;4929274;29;20163;-75
2022/06/10 08:04:14;;;;;;;8.55;2.33;;;;;;;;;;4946458;29;20098;-75
2022/06/10 08:06:46;;;;;;;11.40;2.38;;;;;;;;;;4947088;29;20055;-75
2022/06/10 08:09:13;;;;;;;7.93;2.13;;;;;;;;;;4929876;29;20090;-75
2022/06/10 08:11:41;;;;;;;13.07;2.50;;;;;;;;;;4945386;29;20053;-75
2022/06/10 08:14:08;;;;;;;10.80;2.10;;;;;;;;;;4924154;29;20098;-75
2022/06/10 08:16:36;;;;;;;5.00;1.80;;;;;;;;;;4929739;29;20102;-75
2022/06/10 08:19:04;;;;;;;8.15;1.83;;;;;;;;;;4947257;29;20051;-75
2022/06/10 08:24:37;;;;;;;10.75;2.17;;;;;;;;;;4879506;29;21421;-74
2022/06/10 08:27:05;;;;;;;10.55;2.50;;;;;;;;;;4883231;29;20088;-76
2022/06/10 08:29:33;;;;;;;8.68;2.20;;;;;;;;;;4910022;29;20091;-78
2022/06/10 08:32:00;;;;;;;9.00;2.30;;;;;;;;;;4939711;29;20074;-78
2022/06/10 08:34:27;;;;;;;11.52;1.90;;;;;;;;;;4937331;29;20047;-77
2022/06/10 08:36:55;;;;;;;9.20;2.30;;;;;;;;;;4933705;29;20795;-75
2022/06/10 08:39:22;;;;;;;7.78;2.10;;;;;;;;;;4931751;29;20130;-76
2022/06/10 08:42:08;;;;;;;9.27;1.55;;;;;;;;;;4941979;29;20051;-76
2022/06/10 08:44:44;;;;;;;8.57;1.75;;;;;;;;;;4937174;29;20059;-76
2022/06/10 08:47:17;;;;;;;7.22;2.03;;;;;;;;;;4940242;28;20051;-76
2022/06/10 08:50:09;;;;;;;10.57;2.30;;;;;;;;;;4953698;28;20048;-76
2022/06/10 08:52:55;;;;;;;10.63;2.10;;;;;;;;;;4952058;28;20122;-77
2022/06/10 08:55:22;;;;;;;8.85;2.13;;;;;;;;;;4932489;29;20102;-77
2022/06/10 08:57:49;;;;;;;14.32;2.22;;;;;;;;;;4949600;29;20050;-77
2022/06/10 09:00:17;;;;;;;11.55;1.75;;;;;;;;;;4945566;29;20138;-77
2022/06/10 09:02:48;;;;;;;10.20;2.45;;;;;;;;;;4947214;29;20055;-77
2022/06/10 09:05:23;;;;;;;18.83;2.13;;;;;;;;;;4929872;29;20141;-75
2022/06/10 09:07:53;;;;;;;10.23;2.13;;;;;;;;;;4930009;29;20062;-75
2022/06/10 09:12:52;;;;;;;9.88;1.98;;;;;;;;;;4873717;29;20153;-75
2022/06/10 09:15:19;;;;;;;10.50;2.25;;;;;;;;;;4890106;29;20132;-75
2022/06/10 09:17:50;;;;;;;16.38;2.60;;;;;;;;;;4890128;29;20557;-75
2022/06/10 09:20:27;;;;;;;9.68;1.63;;;;;;;;;;4890416;29;20107;-75
2022/06/10 09:23:11;;;;;;;7.63;1.95;;;;;;;;;;4875506;29;20517;-75
2022/06/10 09:25:42;;;;;;;11.65;2.70;;;;;;;;;;4888059;29;20581;-75
2022/06/10 09:28:10;;;;;;;9.80;2.05;;;;;;;;;;4889910;29;20512;-75
2022/06/10 09:30:37;;;;;;;15.50;2.00;;;;;;;;;;4890772;29;20137;-76
2022/06/10 09:33:24;;;;;;;9.90;1.80;;;;;;;;;;4886536;29;20060;-76
2022/06/10 09:35:56;;;;;;;9.73;1.92;;;;;;;;;;4882202;29;20059;-75
2022/06/10 09:38:42;;;;;;;7.25;1.33;;;;;;;;;;4889705;29;20056;-76
2022/06/10 09:41:09;;;;;;;19.17;2.25;;;;;;;;;;4889633;29;20092;-76
2022/06/10 09:43:46;;;;;;;10.38;2.08;;;;;;;;;;4890011;29;20131;-76
2022/06/10 09:46:19;;;;;;;6.97;2.13;;;;;;;;;;4890974;29;20091;-75
2022/06/10 09:49:19;;;;;;;6.93;1.90;;;;;;;;;;4889446;29;20079;-76
2022/06/10 09:52:04;;;;;;;11.13;1.95;;;;;;;;;;4858256;29;20140;-75
2022/06/10 09:54:38;;;;;;;8.02;1.85;;;;;;;;;;4886910;29;20148;-76
2022/06/10 09:57:08;;;;;;;10.93;2.05;;;;;;;;;;4887817;29;20155;-76
2022/06/10 09:59:36;;;;;;;8.63;2.10;;;;;;;;;;4889040;29;20159;-76
2022/06/10 10:02:09;;;;;;;6.28;1.40;;;;;;;;;;4888961;29;20143;-76
2022/06/10 10:04:45;;;;;;;5.53;1.48;;;;;;;;;;4889104;29;20480;-76
2022/06/10 10:07:22;;;;;;;5.80;1.90;;;;;;;;;;4888878;29;20780;-76
2022/06/10 10:09:53;;;;;;;8.45;1.73;;;;;;;;;;4867866;29;20135;-74
2022/06/10 10:12:20;;;;;;;8.93;1.85;;;;;;;;;;4884971;29;20525;-73
2022/06/10 10:15:07;;;;;;;9.02;1.92;;;;;;;;;;4871487;29;20141;-75
2022/06/10 10:17:43;;;;;;;9.77;1.70;;;;;;;;;;4864123;29;20076;-75
2022/06/10 10:20:21;;;;;;;9.43;3.25;;;;;;;;;;4888670;29;20045;-75
2022/06/10 10:22:55;;;;;;;11.20;1.98;;;;;;;;;;4888262;29;20080;-75
2022/06/10 10:25:24;;;;;;;9.17;1.57;;;;;;;;;;4888636;29;20135;-76
2022/06/10 10:27:52;;;;;;;7.55;1.58;;;;;;;;;;4888992;29;20100;-76
2022/06/10 10:33:11;;;;;;;10.85;2.47;;;;;;;;;;4897788;29;20053;-74
2022/06/10 10:35:44;;;;;;;8.73;2.00;;;;;;;;;;4872087;29;20139;-76
2022/06/10 10:38:14;;;;;;;6.47;1.50;;;;;;;;;;4901958;29;20056;-75
2022/06/10 10:40:47;;;;;;;8.02;1.60;;;;;;;;;;4898523;29;20150;-76
2022/06/10 10:43:18;;;;;;;9.90;1.80;;;;;;;;;;4879825;29;20075;-74
2022/06/10 10:46:04;;;;;;;10.20;2.00;;;;;;;;;;4873110;29;20167;-74
2022/06/10 10:48:34;;;;;;;6.32;1.67;;;;;;;;;;4900038;29;20052;-74
2022/06/10 10:51:04;;;;;;;7.18;1.70;;;;;;;;;;4907729;29;20380;-76
2022/06/10 10:53:38;;;;;;;5.25;1.85;;;;;;;;;;4876517;29;20574;-76
2022/06/10 10:56:06;;;;;;;7.47;1.50;;;;;;;;;;4882093;29;20117;-76
2022/06/10 10:58:35;;;;;;;4.47;1.85;;;;;;;;;;4907774;29;20076;-76
2022/06/10 11:01:07;;;;;;;7.25;1.42;;;;;;;;;;4907879;29;20168;-78
2022/06/10 11:03:37;;;;;;;6.60;1.50;;;;;;;;;;4908097;29;20147;-78
2022/06/10 11:06:05;;;;;;;9.27;1.80;;;;;;;;;;4891222;29;20489;-79
2022/06/10 11:08:35;;;;;;;7.63;1.20;;;;;;;;;;4891213;29;20438;-79
2022/06/10 11:11:14;;;;;;;5.25;1.60;;;;;;;;;;4905686;29;20512;-79
2022/06/10 11:13:46;;;;;;;7.28;1.20;;;;;;;;;;4892698;29;20056;-79
2022/06/10 11:16:26;;;;;;;15.50;2.00;;;;;;;;;;4872873;29;20060;-79
2022/06/10 11:19:14;;;;;;;6.97;1.27;;;;;;;;;;4889559;29;20052;-79
2022/06/10 11:21:55;;;;;;;9.35;1.42;;;;;;;;;;4897390;29;20100;-78
2022/06/10 11:24:24;;;;;;;3.80;1.00;;;;;;;;;;4896227;29;20731;-78
2022/06/10 11:26:53;;;;;;;8.18;1.35;;;;;;;;;;4906588;29;20139;-78
2022/06/10 11:29:21;;;;;;;7.95;1.50;;;;;;;;;;4908093;29;20146;-78
2022/06/10 11:31:55;;;;;;;7.47;1.42;;;;;;;;;;4896493;29;20516;-79
2022/06/10 11:34:29;;;;;;;7.40;1.85;;;;;;;;;;4908433;29;20052;-78
2022/06/10 11:36:57;;;;;;;7.47;1.63;;;;;;;;;;4906821;29;20138;-78
2022/06/10 11:39:33;;;;;;;12.68;1.90;;;;;;;;;;4907452;29;20072;-78
2022/06/10 11:42:07;;;;;;;7.47;1.40;;;;;;;;;;4898568;29;20044;-78
2022/06/10 11:44:56;;;;;;;5.18;1.25;;;;;;;;;;4907148;29;20051;-78
2022/06/10 11:47:29;;;;;;;4.65;1.10;;;;;;;;;;4896764;29;20812;-77
2022/06/10 11:49:59;;;;;;;7.63;1.48;;;;;;;;;;4907632;29;20060;-76
2022/06/10 11:52:26;;;;;;;5.63;1.23;;;;;;;;;;4890255;29;20056;-76
2022/06/10 11:55:03;;;;;;;5.47;1.50;;;;;;;;;;4890208;29;20091;-76
2022/06/10 12:00:21;;;;;;;5.25;1.27;;;;;;;;;;4906215;29;20142;-75
2022/06/10 12:02:54;;;;;;;13.32;1.60;;;;;;;;;;4903163;29;20493;-75
2022/06/10 12:05:28;;;;;;;4.97;1.05;;;;;;;;;;4905754;29;20503;-77
2022/06/10 12:08:13;;;;;;;4.00;1.05;;;;;;;;;;4907374;29;20047;-77
2022/06/10 12:10:53;;;;;;;4.35;1.15;;;;;;;;;;4908476;29;20163;-77
2022/06/10 12:13:21;;;;;;;4.47;1.00;;;;;;;;;;4899281;29;20056;-76
2022/06/10 12:15:54;;;;;;;3.17;1.00;;;;;;;;;;4905712;29;20044;-77
2022/06/10 12:18:23;;;;;;;5.03;1.20;;;;;;;;;;4906165;29;20056;-77
2022/06/10 12:20:54;;;;;;;5.85;1.52;;;;;;;;;;4895331;29;20056;-76
2022/06/10 12:23:24;;;;;;;6.20;1.38;;;;;;;;;;4910660;29;20655;-76
2022/06/10 12:25:56;;;;;;;7.13;1.48;;;;;;;;;;4910267;29;20131;-76
2022/06/10 12:28:26;;;;;;;7.05;2.00;;;;;;;;;;4906735;29;20159;-77
2022/06/10 12:31:00;;;;;;;5.63;1.60;;;;;;;;;;4910799;29;20149;-77
2022/06/10 12:33:39;;;;;;;10.20;1.50;;;;;;;;;;4908505;29;20052;-76
2022/06/10 12:36:13;;;;;;;7.32;1.35;;;;;;;;;;4910024;29;20048;-77
2022/06/10 12:38:41;;;;;;;12.63;1.20;;;;;;;;;;4910647;29;20048;-77
2022/06/10 12:41:11;;;;;;;4.53;1.27;;;;;;;;;;4903596;29;20052;-77
2022/06/10 12:43:41;;;;;;;8.65;1.45;;;;;;;;;;4911506;29;20151;-77
2022/06/10 12:46:12;;;;;;;7.63;1.83;;;;;;;;;;4893524;29;20176;-77
2022/06/10 12:48:46;;;;;;;10.68;2.10;;;;;;;;;;4911839;29;20056;-76
2022/06/10 12:51:14;;;;;;;30.02;2.55;;;;;;;;;;4905561;29;20052;-75
2022/06/10 12:53:48;;;;;;;5.03;1.67;;;;;;;;;;4904712;29;20163;-77
2022/06/10 12:56:21;;;;;;;4.72;1.17;;;;;;;;;;4907949;29;20151;-77
2022/06/10 12:58:50;;;;;;;7.55;1.77;;;;;;;;;;4908051;29;20111;-77
2022/06/10 13:01:40;;;;;;;18.08;1.50;;;;;;;;;;4892931;29;20048;-77
2022/06/10 13:04:15;;;;;;;11.63;2.15;;;;;;;;;;4905585;29;20143;-76
2022/06/10 13:06:43;;;;;;;17.85;1.85;;;;;;;;;;4909406;29;20076;-76
2022/06/10 13:09:15;;;;;;;4.78;1.17;;;;;;;;;;4908216;29;20194;-78
2022/06/10 13:12:05;;;;;;;4.70;1.05;;;;;;;;;;4894370;29;20084;-76
2022/06/10 13:14:36;;;;;;;6.18;1.65;;;;;;;;;;4884563;29;20147;-77
2022/06/10 13:17:22;;;;;;;6.28;1.42;;;;;;;;;;4910042;29;20044;-77
2022/06/10 13:19:56;;;;;;;7.13;1.80;;;;;;;;;;4896418;29;20489;-79
2022/06/10 13:22:30;;;;;;;6.38;1.00;;;;;;;;;;4905706;29;20490;-78
2022/06/10 13:24:57;;;;;;;4.97;1.73;;;;;;;;;;4894301;29;20126;-77
2022/06/10 13:27:25;;;;;;;15.13;1.40;;;;;;;;;;4911062;29;20099;-78
2022/06/10 13:29:55;;;;;;;11.18;1.45;;;;;;;;;;4908432;29;20131;-77
2022/06/10 13:32:23;;;;;;;12.77;1.45;;;;;;;;;;4909389;29;20051;-78
2022/06/10 13:34:57;;;;;;;6.72;1.58;;;;;;;;;;4910187;29;20048;-77
2022/06/10 13:37:27;;;;;;;15.95;2.20;;;;;;;;;;4891089;29;20722;-76
2022/06/10 13:39:57;;;;;;;12.75;2.22;;;;;;;;;;4905357;29;20083;-77
2022/06/10 13:42:54;;;;;;;5.70;1.48;;;;;;;;;;4903656;29;20867;-76
2022/06/10 13:45:28;;;;;;;4.28;1.55;;;;;;;;;;4886424;29;20120;-75
2022/06/10 13:48:15;;;;;;;9.27;1.80;;;;;;;;;;4886820;29;20541;-74
2022/06/10 13:53:42;;;;;;;4.95;1.35;;;;;;;;;;4905806;29;20091;-75
2022/06/10 13:56:13;;;;;;;8.43;2.00;;;;;;;;;;4891475;29;20072;-75
2022/06/10 13:58:45;;;;;;;6.47;1.75;;;;;;;;;;4910877;29;20110;-74
2022/06/10 14:01:17;;;;;;;17.48;1.98;;;;;;;;;;4909113;29;20056;-75
2022/06/10 14:03:46;;;;;;;3.72;1.42;;;;;;;;;;4908978;29;20052;-76
2022/06/10 14:06:14;;;;;;;55.25;6.95;;;;;;;;;;4892322;29;20521;-77
2022/06/10 14:08:46;;;;;;;10.38;1.50;;;;;;;;;;4892195;29;20139;-77
2022/06/10 14:11:14;;;;;;;6.00;1.30;;;;;;;;;;4891516;29;20052;-76
2022/06/10 14:13:52;;;;;;;12.70;2.13;;;;;;;;;;4908293;29;20135;-75
2022/06/10 14:16:22;;;;;;;6.72;1.80;;;;;;;;;;4891590;29;20489;-77
2022/06/10 14:18:50;;;;;;;6.45;1.52;;;;;;;;;;4891632;29;20056;-76
2022/06/10 14:21:18;;;;;;;12.00;1.60;;;;;;;;;;4907984;29;20155;-77
2022/06/10 14:24:14;;;;;;;7.28;2.20;;;;;;;;;;4909116;29;20110;-77
2022/06/10 14:26:41;;;;;;;6.25;1.60;;;;;;;;;;4908576;29;20052;-77
2022/06/10 14:29:20;;;;;;;7.00;1.80;;;;;;;;;;4894998;29;20537;-77
2022/06/10 14:31:49;;;;;;;8.25;1.30;;;;;;;;;;4907228;29;20143;-77
2022/06/10 14:34:19;;;;;;;6.10;1.65;;;;;;;;;;4891963;29;20052;-76
2022/06/10 14:36:52;;;;;;;12.25;2.28;;;;;;;;;;4883175;29;20489;-77
2022/06/10 14:39:22;;;;;;;7.25;1.27;;;;;;;;;;4908948;29;20532;-74
2022/06/10 14:41:57;;;;;;;5.00;1.80;;;;;;;;;;4907354;29;20147;-74
2022/06/10 14:44:26;;;;;;;6.45;2.00;;;;;;;;;;4885490;29;20082;-75
2022/06/10 14:47:05;;;;;;;5.90;1.70;;;;;;;;;;4885368;29;20139;-74
2022/06/10 14:49:40;;;;;;;3.58;1.27;;;;;;;;;;4908087;29;20119;-74
2022/06/10 14:52:10;;;;;;;8.13;1.88;;;;;;;;;;4907248;29;20473;-78
2022/06/10 14:54:38;;;;;;;8.10;1.75;;;;;;;;;;4906399;29;20079;-77
2022/06/10 14:57:06;;;;;;;5.25;1.80;;;;;;;;;;4891647;29;20726;-78
2022/06/10 14:59:34;;;;;;;4.38;1.90;;;;;;;;;;4908160;29;20198;-78
2022/06/10 15:02:02;;;;;;;9.80;1.77;;;;;;;;;;4906165;29;20055;-79
2022/06/10 15:04:29;;;;;;;5.05;2.10;;;;;;;;;;4901639;29;20059;-77
2022/06/10 15:07:17;;;;;;;11.55;1.80;;;;;;;;;;4908455;29;20047;-79
2022/06/10 15:09:44;;;;;;;5.90;1.73;;;;;;;;;;4907558;29;20148;-77
2022/06/10 15:12:11;;;;;;;9.05;1.65;;;;;;;;;;4888451;29;20195;-77
2022/06/10 15:14:39;;;;;;;7.80;1.63;;;;;;;;;;4908242;29;20131;-76
2022/06/10 15:17:06;;;;;;;5.80;1.48;;;;;;;;;;4907915;29;20050;-79
2022/06/10 15:19:35;;;;;;;4.97;1.42;;;;;;;;;;4908096;29;20089;-76
2022/06/10 15:22:03;;;;;;;3.70;1.60;;;;;;;;;;4906598;29;20044;-76